Duck Lake, Canada
Current Conditions -  °F | °C
As of 2:00 PM on Thursday 27 Nov 2014 (Local Time) from CYPA Reporting Station
Light Snow Light Snow  
Wind Chill: -4°   Ceiling: 1800
Heat Index: 10°   Visibility: 12mi
Dew Point:   Wind: 12mph
Humidity: 79%   Direction: 40°NE
Pressure: 30.12"   Gusts: 17mph
Location:  52.8°N, 106.22°W
Report Text: CYPA 272000Z 04010G15KT 12SM -SN OVC018 M12/M15 A3012 RMK SC8 SLP241
Loading
Personal Weather Stations






























Interactive Weather Map New forecast layout! Learn more

10-Day Weather Forecast

Advertisements
Track Severe Weather on mobile